Archidona, Spain
Current Conditions -  °F | °C
As of 1:30 PM on Thursday 23 Oct 2014 (Local Time) from LEMG Reporting Station
Few Clouds Few Clouds  
Wind Chill: 72°   Ceiling: Unl
Heat Index: 72°   Visibility: 6mi
Dew Point: 61°   Wind: 7mph
Humidity: 69%   Direction: 130°SE
Pressure: 30.18"   Gusts: NA
Location:  37.1°N, 4.39°W
Report Text: LEMG 231130Z 13006KT 070V170 9999 FEW020 22/16 Q1022 NOSIG
Loading
Personal Weather Stations






























Interactive Weather Map
Tropical Storm Tracking
New forecast layout! Learn more

10-Day Weather Forecast

Advertisements
Track Severe Weather on mobile